Time;durP1;ratioP1;P1;durP2;ratioP2;P2;SDS_P1;SDS_P2;PMS_P1;PMS_P2;Temp;Humidity;BMP_temperature;BMP_pressure;BME280_temperature;BME280_humidity;BME280_pressure;Samples;Min_cycle;Max_cycle;Signal;HPM_P1;HPM_P2
2022/03/26 00:02:12;;;;;;;0.10;0.10;;;6.10;93.00;;;;;;5054833;28;20051;-82
2022/03/26 00:04:38;;;;;;;0.05;0.05;;;6.00;93.40;;;;;;5038484;28;20450;-82
2022/03/26 00:07:04;;;;;;;0.17;0.17;;;6.00;93.80;;;;;;5054948;28;20094;-82
2022/03/26 00:09:29;;;;;;;0.45;0.45;;;5.90;94.10;;;;;;5054750;28;20048;-82
2022/03/26 00:11:56;;;;;;;2.83;0.52;;;5.90;94.30;;;;;;5054085;28;20045;-82
2022/03/26 00:14:21;;;;;;;0.20;0.20;;;6.00;94.90;;;;;;5054899;28;20045;-82
2022/03/26 00:16:47;;;;;;;0.00;0.00;;;5.90;95.30;;;;;;5054617;28;20037;-82
2022/03/26 00:19:14;;;;;;;0.45;0.45;;;5.90;95.40;;;;;;5037848;28;20048;-82
2022/03/26 00:21:40;;;;;;;0.63;0.00;;;5.70;95.70;;;;;;5054648;28;20048;-82
2022/03/26 00:24:06;;;;;;;0.20;0.20;;;5.80;95.40;;;;;;5054533;28;20448;-82
2022/03/26 00:26:32;;;;;;;0.15;0.13;;;5.80;95.50;;;;;;5037561;28;20049;-82
2022/03/26 00:28:59;;;;;;;0.28;0.28;;;5.70;96.70;;;;;;5037839;28;20045;-82
2022/03/26 00:31:26;;;;;;;0.20;0.20;;;5.70;96.80;;;;;;5037587;28;20439;-82
2022/03/26 00:33:53;;;;;;;3.85;0.30;;;5.70;96.50;;;;;;5054246;28;20489;-82
2022/03/26 00:36:20;;;;;;;0.15;0.15;;;5.70;96.30;;;;;;5054220;28;20493;-82
2022/03/26 00:38:46;;;;;;;0.10;0.10;;;5.70;96.90;;;;;;5053930;28;20481;-81
2022/03/26 00:41:12;;;;;;;0.10;0.10;;;5.70;96.60;;;;;;5037485;28;20052;-82
2022/03/26 00:43:38;;;;;;;0.28;0.25;;;5.60;97.70;;;;;;5054095;28;20049;-82
2022/03/26 00:46:04;;;;;;;0.28;0.10;;;5.50;97.80;;;;;;5053971;28;20435;-82
2022/03/26 00:48:29;;;;;;;0.25;0.00;;;5.50;98.20;;;;;;5053968;28;20093;-82
2022/03/26 00:50:55;;;;;;;2.92;1.02;;;5.50;97.90;;;;;;5054036;28;20045;-82
2022/03/26 00:53:21;;;;;;;0.95;0.35;;;5.50;98.20;;;;;;5053904;28;20495;-82
2022/03/26 00:55:46;;;;;;;0.15;0.15;;;5.50;98.90;;;;;;5053539;28;20127;-82
2022/03/26 00:58:12;;;;;;;2.20;0.00;;;5.50;99.10;;;;;;5037251;28;20154;-82
2022/03/26 01:00:38;;;;;;;0.10;0.10;;;5.40;99.60;;;;;;5053365;28;20053;-82
2022/03/26 01:03:08;;;;;;;0.68;0.43;;;5.40;99.90;;;;;;5036950;28;20055;-82
2022/03/26 01:05:34;;;;;;;0.00;0.00;;;5.40;98.40;;;;;;5053898;28;20049;-82
2022/03/26 01:08:00;;;;;;;1.00;0.45;;;5.40;99.80;;;;;;5036795;28;20494;-82
2022/03/26 01:10:27;;;;;;;0.47;0.30;;;5.40;99.90;;;;;;5036964;28;20051;-82
2022/03/26 01:12:53;;;;;;;0.85;0.35;;;5.30;99.80;;;;;;5053304;28;20515;-82
2022/03/26 01:15:19;;;;;;;0.82;0.47;;;5.30;99.90;;;;;;5053348;28;20049;-82
2022/03/26 01:17:45;;;;;;;0.20;0.20;;;5.30;99.90;;;;;;5053806;28;20053;-82
2022/03/26 01:20:12;;;;;;;0.05;0.00;;;5.30;99.90;;;;;;5036970;28;20075;-82
2022/03/26 01:22:38;;;;;;;2.38;0.68;;;5.20;99.90;;;;;;5053132;28;20095;-82
2022/03/26 01:25:05;;;;;;;0.22;0.22;;;5.20;99.90;;;;;;5036675;28;20053;-82
2022/03/26 01:27:32;;;;;;;1.08;0.20;;;5.20;99.90;;;;;;5053261;28;20086;-82
2022/03/26 01:29:57;;;;;;;0.00;0.00;;;5.20;99.90;;;;;;5053753;28;20397;-82
2022/03/26 01:32:23;;;;;;;3.20;0.57;;;5.20;99.90;;;;;;5036887;28;20059;-82
2022/03/26 01:34:49;;;;;;;1.55;0.28;;;5.20;99.90;;;;;;5053131;28;20377;-82
2022/03/26 01:37:16;;;;;;;0.28;0.28;;;5.20;99.90;;;;;;5036464;28;20499;-82
2022/03/26 01:39:42;;;;;;;2.05;0.10;;;5.10;99.90;;;;;;5053013;28;20048;-82
2022/03/26 01:42:08;;;;;;;0.32;0.25;;;5.10;99.90;;;;;;5053048;28;20052;-82
2022/03/26 01:44:36;;;;;;;2.13;0.38;;;5.10;99.90;;;;;;5052919;28;20049;-82
2022/03/26 01:47:03;;;;;;;0.93;0.85;;;5.10;99.90;;;;;;5052946;28;20048;-82
2022/03/26 01:49:30;;;;;;;1.48;0.45;;;5.10;99.90;;;;;;5052833;28;20080;-82
2022/03/26 01:51:57;;;;;;;0.08;0.08;;;5.00;99.90;;;;;;5052817;28;20133;-82
2022/03/26 01:54:23;;;;;;;0.80;0.15;;;5.00;99.90;;;;;;5052895;28;20063;-82
2022/03/26 01:56:50;;;;;;;0.22;0.22;;;5.00;99.90;;;;;;5052353;28;20404;-82
2022/03/26 01:59:16;;;;;;;0.00;0.00;;;5.00;99.90;;;;;;5052528;28;20512;-82
2022/03/26 02:01:42;;;;;;;1.10;0.93;;;4.90;99.90;;;;;;5053038;28;20045;-83
2022/03/26 02:04:09;;;;;;;1.85;0.30;;;4.90;99.90;;;;;;5036312;28;20419;-82
2022/03/26 02:06:37;;;;;;;1.55;0.63;;;4.90;99.90;;;;;;5036122;28;20041;-82
2022/03/26 02:09:05;;;;;;;0.25;0.05;;;4.80;99.90;;;;;;5052803;28;20131;-82
2022/03/26 02:11:32;;;;;;;0.00;0.00;;;4.80;99.90;;;;;;5052566;28;20503;-82
2022/03/26 02:13:58;;;;;;;0.57;0.57;;;4.80;99.90;;;;;;5052445;28;20056;-82
2022/03/26 02:16:25;;;;;;;1.55;0.20;;;4.80;99.90;;;;;;5035731;28;20053;-82
2022/03/26 02:18:52;;;;;;;1.27;0.73;;;4.80;99.90;;;;;;5052453;28;20045;-82
2022/03/26 02:21:19;;;;;;;1.00;0.60;;;4.80;99.90;;;;;;5052812;28;20052;-82
2022/03/26 02:23:46;;;;;;;0.20;0.20;;;4.80;99.90;;;;;;5052829;28;20384;-82
2022/03/26 02:26:16;;;;;;;1.00;0.50;;;4.80;99.90;;;;;;5036220;28;20155;-82
2022/03/26 02:28:46;;;;;;;6.45;0.43;;;4.80;99.90;;;;;;5035863;28;20045;-82
2022/03/26 02:31:16;;;;;;;0.75;0.45;;;4.70;99.90;;;;;;5052640;28;20495;-82
2022/03/26 02:33:42;;;;;;;0.88;0.88;;;4.70;99.90;;;;;;5052441;28;20041;-82
2022/03/26 02:36:09;;;;;;;0.32;0.32;;;4.60;99.90;;;;;;5056657;28;20480;-82
2022/03/26 02:38:36;;;;;;;0.52;0.20;;;4.60;99.90;;;;;;5040196;28;20048;-82
2022/03/26 02:41:01;;;;;;;0.98;0.47;;;4.60;99.90;;;;;;5040317;28;20075;-83
2022/03/26 02:43:27;;;;;;;0.10;0.10;;;4.60;99.90;;;;;;5039896;28;20396;-82
2022/03/26 02:45:53;;;;;;;0.52;0.00;;;4.50;99.90;;;;;;5056184;28;20071;-82
2022/03/26 02:48:19;;;;;;;2.00;0.43;;;4.50;99.90;;;;;;5039646;28;20071;-82
2022/03/26 02:50:45;;;;;;;0.38;0.38;;;4.50;99.90;;;;;;5056481;28;20469;-82
2022/03/26 02:53:11;;;;;;;1.20;0.22;;;4.50;99.90;;;;;;5056096;28;20076;-82
2022/03/26 02:55:38;;;;;;;0.70;0.10;;;4.50;99.90;;;;;;5056238;28;20049;-82
2022/03/26 02:58:05;;;;;;;5.53;2.42;;;4.40;99.90;;;;;;5056307;28;20049;-82
2022/03/26 03:00:31;;;;;;;0.40;0.40;;;4.40;99.90;;;;;;5039700;28;20087;-82
2022/03/26 03:02:57;;;;;;;0.25;0.25;;;4.30;99.90;;;;;;5056226;28;20147;-82
2022/03/26 03:05:23;;;;;;;0.10;0.05;;;4.30;99.90;;;;;;5056107;28;20484;-82
2022/03/26 03:07:50;;;;;;;0.40;0.30;;;4.20;99.90;;;;;;5055974;28;20083;-83
2022/03/26 03:10:17;;;;;;;7.28;1.55;;;4.20;99.90;;;;;;5056587;28;20128;-82
2022/03/26 03:12:44;;;;;;;0.82;0.63;;;4.10;99.90;;;;;;5039324;28;20405;-82
2022/03/26 03:15:10;;;;;;;0.20;0.20;;;4.10;99.90;;;;;;5039055;28;20045;-82
2022/03/26 03:17:41;;;;;;;0.22;0.20;;;4.10;99.90;;;;;;5038904;28;20381;-82
2022/03/26 03:20:08;;;;;;;0.00;0.00;;;4.10;99.90;;;;;;5056480;28;20045;-82
2022/03/26 03:22:34;;;;;;;0.10;0.10;;;4.00;99.90;;;;;;5038822;28;20640;-82
2022/03/26 03:24:59;;;;;;;0.08;0.00;;;4.00;99.90;;;;;;5038746;28;20127;-82
2022/03/26 03:27:25;;;;;;;0.15;0.13;;;4.00;99.90;;;;;;5055780;28;20131;-82
2022/03/26 03:29:52;;;;;;;1.17;0.00;;;4.10;99.90;;;;;;5055665;28;20087;-82
2022/03/26 03:32:17;;;;;;;0.52;0.13;;;3.90;99.90;;;;;;5038933;28;20047;-82
2022/03/26 03:34:43;;;;;;;0.77;0.52;;;3.90;99.90;;;;;;5056376;28;20052;-82
2022/03/26 03:37:09;;;;;;;0.43;0.32;;;3.90;99.90;;;;;;5055544;28;20500;-83
2022/03/26 03:39:35;;;;;;;0.30;0.30;;;3.90;99.90;;;;;;5055844;28;20084;-82
2022/03/26 03:42:00;;;;;;;0.15;0.15;;;3.90;99.90;;;;;;5038726;28;20475;-82
2022/03/26 03:44:26;;;;;;;0.13;0.13;;;3.90;99.90;;;;;;5055403;28;20048;-82
2022/03/26 03:46:52;;;;;;;1.65;0.70;;;3.80;99.90;;;;;;5055012;28;20060;-82
2022/03/26 03:49:19;;;;;;;0.00;0.00;;;3.80;99.90;;;;;;5038705;28;20419;-82
2022/03/26 03:51:45;;;;;;;1.77;0.55;;;3.90;99.90;;;;;;5054893;28;20045;-82
2022/03/26 03:54:11;;;;;;;0.55;0.28;;;3.80;99.90;;;;;;5038487;28;20052;-82
2022/03/26 03:56:36;;;;;;;0.95;0.43;;;3.80;99.90;;;;;;5038143;28;20063;-82
2022/03/26 03:59:02;;;;;;;1.40;0.50;;;3.80;99.90;;;;;;5038408;28;20411;-82
2022/03/26 04:01:28;;;;;;;0.10;0.10;;;3.80;99.90;;;;;;5054883;28;20049;-82
2022/03/26 04:03:54;;;;;;;0.38;0.38;;;3.80;99.90;;;;;;5055204;28;20183;-82
2022/03/26 04:06:20;;;;;;;0.43;0.38;;;3.80;99.90;;;;;;5055016;28;20037;-82
2022/03/26 04:08:45;;;;;;;0.10;0.10;;;3.80;99.90;;;;;;5054519;28;20477;-82
2022/03/26 04:11:11;;;;;;;0.10;0.10;;;3.80;99.90;;;;;;5038247;28;20449;-82
2022/03/26 04:13:37;;;;;;;7.78;0.28;;;3.80;99.90;;;;;;5054754;28;20041;-82
2022/03/26 04:16:03;;;;;;;0.00;0.00;;;3.70;99.90;;;;;;5037992;28;20044;-82
2022/03/26 04:18:28;;;;;;;0.10;0.10;;;3.70;99.90;;;;;;5055397;28;20179;-82
2022/03/26 04:20:54;;;;;;;0.10;0.10;;;3.70;99.90;;;;;;5054717;28;20040;-83
2022/03/26 04:23:20;;;;;;;0.47;0.47;;;3.60;99.90;;;;;;5054164;28;20154;-82
2022/03/26 04:25:46;;;;;;;2.42;0.80;;;3.60;99.90;;;;;;5038092;28;20049;-82
2022/03/26 04:28:13;;;;;;;2.20;0.30;;;3.60;99.90;;;;;;5037804;28;20135;-82
2022/03/26 04:30:39;;;;;;;8.05;1.45;;;3.60;99.90;;;;;;5037932;28;20214;-82
2022/03/26 04:33:04;;;;;;;0.47;0.32;;;3.60;99.90;;;;;;5037745;28;20128;-83
2022/03/26 04:35:30;;;;;;;0.28;0.28;;;3.60;99.90;;;;;;5054274;28;20041;-82
2022/03/26 04:37:57;;;;;;;0.75;0.75;;;3.60;99.90;;;;;;5037896;28;20090;-82
2022/03/26 04:40:24;;;;;;;0.32;0.32;;;3.60;99.90;;;;;;5037721;28;20057;-82
2022/03/26 04:42:50;;;;;;;2.55;1.08;;;3.60;99.90;;;;;;5037678;28;20060;-82
2022/03/26 04:45:15;;;;;;;0.30;0.30;;;3.60;99.90;;;;;;5037554;28;20595;-82
2022/03/26 04:47:41;;;;;;;0.65;0.38;;;3.60;99.90;;;;;;5054343;28;20131;-83
2022/03/26 04:50:08;;;;;;;3.95;0.90;;;3.60;99.90;;;;;;5054148;28;20041;-82
2022/03/26 04:52:34;;;;;;;0.52;0.52;;;3.60;99.90;;;;;;5037629;28;20493;-82
2022/03/26 04:54:59;;;;;;;0.55;0.55;;;3.50;99.90;;;;;;5037042;28;20052;-82
2022/03/26 04:57:25;;;;;;;0.22;0.20;;;3.50;99.90;;;;;;5053369;28;20055;-82
2022/03/26 04:59:51;;;;;;;0.20;0.20;;;3.60;99.90;;;;;;5054037;28;20091;-82
2022/03/26 05:02:17;;;;;;;1.17;1.10;;;3.60;99.90;;;;;;5053847;28;20037;-82
2022/03/26 05:04:42;;;;;;;4.13;0.40;;;3.60;99.90;;;;;;5053873;28;20128;-83
2022/03/26 05:09:53;;;;;;;0.70;0.35;;;3.50;99.90;;;;;;5053687;28;20088;-82
2022/03/26 05:12:19;;;;;;;0.35;0.30;;;3.50;99.90;;;;;;5053738;28;20041;-82
2022/03/26 05:14:45;;;;;;;5.88;0.60;;;3.50;99.90;;;;;;5053716;28;20072;-82
2022/03/26 05:17:11;;;;;;;4.07;1.15;;;3.50;99.90;;;;;;5053551;28;20098;-82
2022/03/26 05:19:36;;;;;;;2.55;0.70;;;3.50;99.90;;;;;;5053841;28;20498;-82
2022/03/26 05:22:04;;;;;;;0.13;0.13;;;3.50;99.90;;;;;;5036784;28;20145;-82
2022/03/26 05:24:30;;;;;;;0.50;0.30;;;3.50;99.90;;;;;;5053367;28;20053;-82
2022/03/26 05:26:56;;;;;;;1.75;0.82;;;3.50;99.90;;;;;;5053437;28;20144;-82
2022/03/26 05:29:21;;;;;;;0.80;0.80;;;3.40;99.90;;;;;;5036661;28;20090;-82
2022/03/26 05:31:47;;;;;;;0.20;0.10;;;3.50;99.90;;;;;;5053839;28;20041;-83
2022/03/26 05:34:14;;;;;;;0.40;0.40;;;3.40;99.90;;;;;;5053294;28;20215;-82
2022/03/26 05:36:39;;;;;;;0.73;0.73;;;3.40;99.90;;;;;;5053513;28;20443;-82
2022/03/26 05:39:05;;;;;;;1.90;1.77;;;3.50;99.90;;;;;;5053038;28;20094;-82
2022/03/26 05:41:32;;;;;;;2.92;0.77;;;3.50;99.90;;;;;;5036489;28;20087;-82
2022/03/26 05:43:59;;;;;;;1.50;0.50;;;3.50;99.90;;;;;;5056977;28;20102;-83
2022/03/26 05:46:25;;;;;;;0.47;0.30;;;3.50;99.90;;;;;;5035913;28;20481;-83
2022/03/26 05:48:51;;;;;;;0.32;0.25;;;3.50;99.90;;;;;;5036157;28;20084;-83
2022/03/26 05:51:17;;;;;;;0.20;0.20;;;3.50;99.90;;;;;;5036170;28;20508;-83
2022/03/26 05:53:44;;;;;;;1.73;0.50;;;3.50;99.90;;;;;;5052762;28;20040;-83
2022/03/26 05:56:10;;;;;;;3.15;0.98;;;3.50;99.90;;;;;;5052460;28;20135;-83
2022/03/26 05:58:36;;;;;;;1.58;0.93;;;3.60;99.90;;;;;;5035123;28;20084;-83
2022/03/26 06:01:02;;;;;;;0.40;0.30;;;3.60;99.90;;;;;;5052675;28;20073;-83
2022/03/26 06:03:28;;;;;;;3.50;0.32;;;3.60;99.90;;;;;;5035930;28;20052;-84
2022/03/26 06:05:54;;;;;;;0.13;0.13;;;3.70;99.90;;;;;;5052761;28;20052;-84
2022/03/26 06:08:19;;;;;;;1.13;0.70;;;3.80;99.90;;;;;;5035403;28;20098;-84
2022/03/26 06:10:45;;;;;;;1.00;0.30;;;3.80;99.90;;;;;;5035447;28;20072;-84
2022/03/26 06:13:10;;;;;;;0.70;0.50;;;3.90;99.90;;;;;;5052271;28;20041;-84
2022/03/26 06:15:37;;;;;;;1.65;1.13;;;4.00;99.90;;;;;;5036129;28;20041;-83
2022/03/26 06:18:04;;;;;;;0.55;0.55;;;4.20;99.90;;;;;;5052643;28;20397;-84
2022/03/26 06:20:30;;;;;;;0.95;0.50;;;4.30;99.90;;;;;;5052697;28;20045;-84
2022/03/26 06:22:56;;;;;;;0.50;0.50;;;4.60;99.90;;;;;;5035728;28;20131;-83
2022/03/26 06:25:21;;;;;;;0.10;0.10;;;4.80;99.90;;;;;;5035538;28;20132;-83
2022/03/26 06:27:48;;;;;;;4.85;0.55;;;5.00;99.90;;;;;;5035469;28;20056;-84
2022/03/26 06:30:14;;;;;;;2.42;1.08;;;5.10;99.90;;;;;;5052400;28;20041;-84
2022/03/26 06:32:40;;;;;;;0.43;0.43;;;5.30;99.90;;;;;;5035926;28;20044;-84
2022/03/26 06:35:06;;;;;;;6.95;0.82;;;5.40;99.90;;;;;;5052483;28;20132;-84
2022/03/26 06:37:32;;;;;;;2.05;0.70;;;5.70;99.90;;;;;;5052066;28;20052;-83
2022/03/26 06:39:58;;;;;;;0.38;0.32;;;6.10;99.90;;;;;;5035847;28;20061;-83
2022/03/26 06:42:25;;;;;;;10.80;2.20;;;6.50;99.90;;;;;;5052405;28;20122;-83
2022/03/26 06:44:54;;;;;;;2.42;2.08;;;6.90;99.90;;;;;;5035945;28;20169;-83
2022/03/26 06:47:19;;;;;;;3.78;2.17;;;7.40;99.90;;;;;;5052382;28;20502;-83
2022/03/26 06:49:46;;;;;;;1.42;0.80;;;7.80;99.90;;;;;;5052083;28;20166;-83
2022/03/26 06:52:12;;;;;;;13.27;1.27;;;8.20;99.90;;;;;;5036048;28;20067;-83
2022/03/26 06:54:37;;;;;;;2.28;2.03;;;8.60;99.90;;;;;;5035827;28;20048;-83
2022/03/26 06:57:04;;;;;;;2.15;1.15;;;8.90;99.90;;;;;;5051807;28;20475;-84
2022/03/26 06:59:29;;;;;;;7.63;1.65;;;9.20;99.90;;;;;;5035469;28;20408;-83
2022/03/26 07:01:55;;;;;;;3.65;1.27;;;9.30;99.90;;;;;;5052035;28;20052;-82
2022/03/26 07:04:21;;;;;;;2.25;1.27;;;9.20;99.90;;;;;;5035653;28;20126;-83
2022/03/26 07:06:46;;;;;;;3.25;1.05;;;9.40;99.90;;;;;;5052043;28;20049;-82
2022/03/26 07:09:12;;;;;;;4.20;3.03;;;10.20;99.90;;;;;;5035097;28;20136;-82
2022/03/26 07:11:38;;;;;;;7.82;3.17;;;10.90;99.90;;;;;;5036014;28;20412;-83
2022/03/26 07:14:03;;;;;;;1.42;1.42;;;11.70;99.90;;;;;;5052107;28;20041;-83
2022/03/26 07:16:29;;;;;;;5.68;3.25;;;12.40;99.90;;;;;;5051760;28;20103;-83
2022/03/26 07:18:55;;;;;;;3.58;3.30;;;13.10;98.50;;;;;;5051541;28;20045;-83
2022/03/26 07:21:21;;;;;;;4.65;1.50;;;13.50;97.00;;;;;;5054372;28;20135;-83
2022/03/26 07:23:47;;;;;;;2.05;1.95;;;13.80;96.10;;;;;;5055747;28;20078;-83
2022/03/26 07:26:12;;;;;;;2.47;2.05;;;13.90;94.90;;;;;;5038947;28;20485;-83
2022/03/26 07:28:38;;;;;;;5.55;4.70;;;14.10;93.60;;;;;;5038590;28;20462;-83
2022/03/26 07:31:05;;;;;;;1.75;1.65;;;14.20;93.60;;;;;;5055218;28;20041;-83
2022/03/26 07:33:30;;;;;;;3.15;2.08;;;14.10;92.90;;;;;;5038982;28;20060;-83
2022/03/26 07:35:56;;;;;;;3.17;1.92;;;14.10;94.30;;;;;;5038645;28;20057;-83
2022/03/26 07:38:22;;;;;;;2.13;1.20;;;14.20;94.00;;;;;;5038662;28;20053;-83
2022/03/26 07:40:47;;;;;;;8.43;3.05;;;14.60;93.10;;;;;;5055530;28;20131;-83
2022/03/26 07:43:13;;;;;;;7.18;4.05;;;15.10;92.00;;;;;;5054968;28;20132;-83
2022/03/26 07:45:39;;;;;;;4.22;2.92;;;15.30;90.50;;;;;;5055021;28;20041;-83
2022/03/26 07:48:07;;;;;;;2.85;2.20;;;15.50;90.50;;;;;;5054753;28;20123;-83
2022/03/26 07:50:33;;;;;;;5.25;3.17;;;15.40;89.80;;;;;;5055325;28;20519;-82
2022/03/26 07:52:59;;;;;;;2.15;1.92;;;15.20;88.50;;;;;;5038104;28;20056;-82
2022/03/26 07:55:24;;;;;;;5.10;2.53;;;15.00;88.70;;;;;;5055011;28;20132;-82
2022/03/26 07:57:50;;;;;;;3.17;2.97;;;14.80;89.00;;;;;;5054949;28;20436;-82
2022/03/26 08:00:16;;;;;;;8.55;2.67;;;14.60;89.30;;;;;;5038509;28;20477;-82
2022/03/26 08:02:41;;;;;;;4.13;2.50;;;14.40;89.60;;;;;;5054750;28;20484;-82
2022/03/26 08:05:07;;;;;;;6.65;3.38;;;14.10;90.00;;;;;;5038069;28;20052;-82
2022/03/26 08:07:33;;;;;;;2.90;1.95;;;13.90;90.20;;;;;;5054991;28;20053;-82
2022/03/26 08:09:58;;;;;;;3.28;2.95;;;13.80;90.80;;;;;;5054492;28;20523;-82
2022/03/26 08:12:24;;;;;;;5.38;2.53;;;13.90;90.90;;;;;;5054825;28;20087;-82
2022/03/26 08:14:50;;;;;;;3.30;2.63;;;13.70;91.10;;;;;;5054948;28;20103;-82
2022/03/26 08:17:16;;;;;;;1.27;1.23;;;13.60;91.20;;;;;;5054436;28;20063;-82
2022/03/26 08:19:42;;;;;;;2.30;2.10;;;13.50;91.10;;;;;;5054239;28;20048;-82
2022/03/26 08:22:08;;;;;;;2.22;2.03;;;13.50;91.00;;;;;;5037478;28;20044;-83
2022/03/26 08:24:33;;;;;;;14.18;2.92;;;13.40;90.20;;;;;;5054311;28;20041;-82
2022/03/26 08:26:59;;;;;;;8.25;1.67;;;13.40;90.60;;;;;;5054471;28;20041;-82
2022/03/26 08:29:25;;;;;;;2.72;2.53;;;13.40;90.70;;;;;;5037560;28;20049;-82
2022/03/26 08:31:51;;;;;;;1.60;1.35;;;13.30;90.00;;;;;;5053467;28;20098;-82
2022/03/26 08:34:18;;;;;;;1.95;1.02;;;13.40;89.70;;;;;;5037695;28;20049;-82
2022/03/26 08:36:44;;;;;;;5.57;3.05;;;13.40;89.90;;;;;;5037729;28;20131;-82
2022/03/26 08:39:10;;;;;;;4.30;1.52;;;13.40;90.00;;;;;;5053768;28;20183;-82
2022/03/26 08:41:35;;;;;;;1.80;1.65;;;13.50;89.20;;;;;;5037873;28;20087;-82
2022/03/26 08:44:01;;;;;;;2.20;2.00;;;13.70;90.90;;;;;;5054089;28;20048;-82
2022/03/26 08:46:27;;;;;;;11.48;4.97;;;13.80;89.60;;;;;;5037306;28;20263;-83
2022/03/26 08:48:52;;;;;;;4.15;1.70;;;13.90;87.50;;;;;;5036903;28;20175;-83
2022/03/26 08:51:19;;;;;;;4.00;2.03;;;14.00;87.20;;;;;;5054398;28;20049;-82
2022/03/26 08:53:44;;;;;;;3.60;1.92;;;14.10;89.50;;;;;;5037296;28;20048;-82
2022/03/26 08:56:11;;;;;;;2.88;2.28;;;14.40;86.60;;;;;;5053499;28;20053;-82
2022/03/26 08:58:37;;;;;;;3.42;3.22;;;14.50;88.00;;;;;;5053995;28;20060;-82
2022/03/26 09:01:03;;;;;;;4.32;2.13;;;14.70;87.10;;;;;;5036889;28;20111;-83
2022/03/26 09:03:29;;;;;;;1.63;1.52;;;14.90;85.50;;;;;;5036809;28;20489;-83
2022/03/26 09:05:56;;;;;;;3.15;1.30;;;15.10;86.00;;;;;;5037191;28;20110;-83
2022/03/26 09:08:22;;;;;;;3.00;2.35;;;15.30;85.50;;;;;;5036990;28;20139;-83
2022/03/26 09:10:48;;;;;;;1.27;1.27;;;15.40;86.20;;;;;;5036728;28;20615;-83
2022/03/26 09:13:15;;;;;;;11.93;4.28;;;15.60;82.50;;;;;;5053801;28;20048;-83
2022/03/26 09:15:40;;;;;;;3.90;2.08;;;15.70;81.30;;;;;;5036822;28;20067;-83
2022/03/26 09:18:06;;;;;;;2.08;1.85;;;15.80;82.00;;;;;;5053031;28;20389;-83
2022/03/26 09:20:32;;;;;;;3.42;2.25;;;15.90;81.00;;;;;;5053075;28;20048;-83
2022/03/26 09:22:58;;;;;;;1.25;1.25;;;16.00;80.80;;;;;;5053269;28;20037;-83
2022/03/26 09:25:24;;;;;;;0.93;0.90;;;16.20;79.10;;;;;;5053290;28;20048;-83
2022/03/26 09:27:50;;;;;;;0.93;0.93;;;16.40;78.80;;;;;;5053144;28;20128;-82
2022/03/26 09:30:17;;;;;;;3.42;2.55;;;16.40;77.00;;;;;;5036693;28;20064;-82
2022/03/26 09:32:46;;;;;;;2.65;1.02;;;16.60;77.40;;;;;;5036403;28;20048;-82
2022/03/26 09:35:13;;;;;;;5.90;2.00;;;16.80;75.70;;;;;;5037200;28;20052;-83
2022/03/26 09:37:40;;;;;;;1.75;1.15;;;16.90;77.20;;;;;;5036522;28;20087;-82
2022/03/26 09:40:08;;;;;;;2.50;1.48;;;17.20;76.70;;;;;;5052975;28;20499;-82
2022/03/26 09:42:36;;;;;;;7.07;3.33;;;17.20;74.00;;;;;;5035700;28;20044;-83
2022/03/26 09:45:05;;;;;;;2.05;1.85;;;17.30;75.40;;;;;;5037083;28;20488;-82
2022/03/26 09:47:32;;;;;;;1.20;1.08;;;17.60;76.10;;;;;;5052886;28;20075;-83
2022/03/26 09:49:58;;;;;;;1.05;1.05;;;17.90;75.20;;;;;;5052702;28;20095;-83
2022/03/26 09:52:23;;;;;;;2.15;1.85;;;18.00;75.80;;;;;;5036285;28;20096;-83
2022/03/26 09:54:49;;;;;;;0.98;0.90;;;18.10;70.30;;;;;;5052914;28;20076;-83
2022/03/26 09:57:15;;;;;;;0.75;0.55;;;18.30;71.70;;;;;;5052048;28;20511;-83
2022/03/26 09:59:41;;;;;;;2.35;1.95;;;18.50;72.90;;;;;;5036197;28;20480;-82
2022/03/26 10:02:07;;;;;;;1.75;1.20;;;18.60;72.10;;;;;;5052721;28;20037;-82
2022/03/26 10:04:37;;;;;;;1.63;0.80;;;18.60;70.10;;;;;;5036239;28;20049;-83
2022/03/26 10:07:04;;;;;;;3.92;1.70;;;18.60;70.50;;;;;;5052802;28;20045;-83
2022/03/26 10:09:37;;;;;;;2.88;2.25;;;18.70;71.80;;;;;;5052581;28;20412;-82
2022/03/26 10:12:10;;;;;;;8.48;1.05;;;18.60;68.90;;;;;;5036280;28;20057;-83
2022/03/26 10:14:51;;;;;;;0.88;0.45;;;18.70;68.60;;;;;;5052608;28;20102;-83
2022/03/26 10:17:37;;;;;;;3.95;2.55;;;18.70;68.10;;;;;;5036238;28;20191;-83
2022/03/26 10:20:12;;;;;;;1.35;0.77;;;18.80;69.10;;;;;;5052590;28;20045;-83
2022/03/26 10:22:44;;;;;;;2.83;1.75;;;18.90;69.10;;;;;;5052638;28;20149;-81
2022/03/26 10:25:11;;;;;;;1.00;1.00;;;18.80;69.90;;;;;;5052765;28;20088;-81
2022/03/26 10:27:50;;;;;;;5.60;1.35;;;18.80;69.00;;;;;;5035769;28;20080;-82
2022/03/26 10:32:38;;;;;;;0.57;0.52;;;18.90;70.30;;;;;;5035785;28;20513;-82
2022/03/26 10:33:21;;;;;;;0.45;0.45;;;18.90;69.70;;;;;;5052281;28;20051;-82
2022/03/26 10:35:55;;;;;;;0.55;0.30;;;19.00;70.70;;;;;;5052596;28;20171;-82
2022/03/26 10:38:31;;;;;;;0.68;0.52;;;19.10;70.80;;;;;;5052368;28;20088;-82
2022/03/26 10:41:02;;;;;;;4.22;0.73;;;19.10;71.30;;;;;;5052260;28;20037;-82
2022/03/26 10:43:28;;;;;;;1.45;1.08;;;19.30;69.80;;;;;;5035562;28;20400;-82
2022/03/26 10:45:56;;;;;;;0.95;0.45;;;19.30;69.00;;;;;;5051876;28;20041;-80
2022/03/26 10:48:30;;;;;;;0.35;0.28;;;19.30;68.40;;;;;;5052094;28;20068;-82
2022/03/26 10:50:58;;;;;;;0.38;0.38;;;19.50;71.90;;;;;;5052419;28;20135;-82
2022/03/26 10:53:36;;;;;;;7.60;1.85;;;19.60;72.70;;;;;;5052313;28;20107;-83
2022/03/26 10:56:04;;;;;;;4.05;1.52;;;19.80;70.70;;;;;;5037596;28;20464;-82
2022/03/26 10:58:34;;;;;;;3.10;0.47;;;19.80;67.60;;;;;;5055400;28;20064;-82
2022/03/26 11:01:00;;;;;;;1.45;0.70;;;19.80;69.00;;;;;;5056177;28;20055;-82
2022/03/26 11:03:26;;;;;;;0.82;0.82;;;19.80;69.90;;;;;;5056166;28;20049;-82
2022/03/26 11:05:57;;;;;;;0.20;0.20;;;20.10;71.20;;;;;;5056271;28;20060;-82
2022/03/26 11:08:24;;;;;;;1.38;0.90;;;20.00;68.00;;;;;;5055970;28;20047;-82
2022/03/26 11:10:53;;;;;;;0.88;0.20;;;20.20;68.10;;;;;;5039384;28;20385;-82
2022/03/26 11:13:19;;;;;;;0.57;0.57;;;20.00;68.10;;;;;;5055832;28;20037;-82
2022/03/26 11:15:52;;;;;;;0.40;0.40;;;20.00;67.60;;;;;;5056001;28;20049;-82
2022/03/26 11:18:48;;;;;;;1.05;0.40;;;20.10;67.30;;;;;;5039589;28;20052;-82
2022/03/26 11:21:31;;;;;;;0.20;0.10;;;20.10;66.90;;;;;;5039837;28;20574;-81
2022/03/26 11:24:30;;;;;;;0.28;0.28;;;20.20;68.00;;;;;;5039524;28;20044;-81
2022/03/26 11:27:16;;;;;;;0.13;0.13;;;20.20;68.40;;;;;;5038994;28;20048;-81
2022/03/26 11:29:53;;;;;;;0.15;0.15;;;20.30;67.40;;;;;;5038940;28;20045;-82
2022/03/26 11:32:43;;;;;;;0.10;0.10;;;20.20;66.50;;;;;;5055500;28;20056;-81
2022/03/26 11:35:15;;;;;;;0.40;0.40;;;20.20;66.40;;;;;;5055699;28;20103;-82
2022/03/26 11:37:55;;;;;;;0.45;0.40;;;20.30;65.50;;;;;;5055624;28;20065;-82
2022/03/26 11:40:54;;;;;;;0.73;0.47;;;20.30;66.00;;;;;;5055628;28;20045;-81
2022/03/26 11:43:44;;;;;;;0.55;0.55;;;20.30;65.70;;;;;;4981925;28;20053;-81
2022/03/26 11:51:56;;;;;;;0.50;0.50;;;20.40;65.60;;;;;;4998081;28;20046;-79
2022/03/26 11:54:21;;;;;;;0.30;0.20;;;20.30;65.20;;;;;;4982072;28;20138;-79
2022/03/26 11:56:47;;;;;;;0.82;0.82;;;20.30;65.10;;;;;;4997626;28;20200;-81
2022/03/26 11:59:15;;;;;;;0.13;0.13;;;20.20;64.30;;;;;;4997656;28;20058;-81
2022/03/26 12:01:46;;;;;;;2.88;0.50;;;20.20;64.00;;;;;;4998101;28;20429;-81
2022/03/26 12:04:13;;;;;;;1.25;0.75;;;20.20;64.60;;;;;;4998120;28;20045;-79
2022/03/26 12:06:48;;;;;;;0.17;0.17;;;20.20;64.20;;;;;;4996678;28;20088;-79
2022/03/26 12:09:35;;;;;;;0.03;0.03;;;20.40;64.20;;;;;;4981679;28;20053;-79
2022/03/26 12:14:33;;;;;;;1.75;0.57;;;20.60;63.60;;;;;;4998354;28;20046;-78
2022/03/26 12:16:59;;;;;;;0.00;0.00;;;20.70;64.00;;;;;;4981534;28;20042;-82
2022/03/26 12:19:47;;;;;;;0.70;0.70;;;20.90;64.60;;;;;;5037607;28;20117;-82
2022/03/26 12:22:32;;;;;;;4.15;0.30;;;21.00;64.10;;;;;;5055649;28;20052;-81
2022/03/26 12:24:58;;;;;;;;;;;21.10;63.90;;;;;;5038307;28;20501;-83
2022/03/26 12:27:25;;;;;;;0.30;0.30;;;21.20;63.50;;;;;;5037958;28;19966;-82
2022/03/26 12:29:56;;;;;;;0.10;0.10;;;21.20;63.10;;;;;;5054316;28;20102;-81
2022/03/26 12:32:21;;;;;;;0.00;0.00;;;21.20;65.20;;;;;;5054686;28;20045;-82
2022/03/26 12:35:09;;;;;;;1.13;1.02;;;21.50;63.90;;;;;;5054698;28;20113;-82
2022/03/26 12:37:36;;;;;;;0.77;0.77;;;21.50;62.70;;;;;;5038094;28;20060;-79
2022/03/26 12:40:07;;;;;;;0.35;0.35;;;21.60;63.00;;;;;;5037602;28;20064;-81
2022/03/26 12:42:33;;;;;;;0.47;0.47;;;21.40;62.20;;;;;;5037704;28;20053;-79
2022/03/26 12:44:59;;;;;;;0.30;0.22;;;21.50;63.30;;;;;;5037671;28;20357;-82
2022/03/26 12:47:26;;;;;;;0.08;0.05;;;21.60;62.40;;;;;;5037522;28;20194;-82
2022/03/26 12:49:57;;;;;;;0.10;0.10;;;21.80;62.70;;;;;;5037354;28;20067;-82
2022/03/26 12:52:26;;;;;;;0.00;0.00;;;21.90;62.00;;;;;;5037547;28;20492;-82
2022/03/26 12:54:59;;;;;;;0.22;0.22;;;21.90;62.20;;;;;;5037473;28;20049;-80
2022/03/26 13:00:12;;;;;;;0.20;0.20;;;22.10;61.80;;;;;;5054339;28;20095;-83
2022/03/26 13:02:38;;;;;;;0.05;0.00;;;21.90;61.30;;;;;;5037294;28;20064;-80
2022/03/26 13:05:07;;;;;;;0.00;0.00;;;21.70;60.90;;;;;;5053731;28;20041;-82
2022/03/26 13:07:39;;;;;;;0.20;0.20;;;21.60;61.60;;;;;;5053845;28;20059;-82
2022/03/26 13:10:05;;;;;;;0.00;0.00;;;21.70;61.10;;;;;;5053548;28;20080;-82